createdAt,value
2022-08-24T00:00:12.442Z,76.79
2022-08-24T00:00:32.527Z,76.62
2022-08-24T00:00:52.587Z,76.53
2022-08-24T00:01:12.669Z,76.65
2022-08-24T00:01:32.719Z,76.77
2022-08-24T00:01:52.939Z,76.53
2022-08-24T00:02:13.014Z,76.91
2022-08-24T00:02:33.092Z,77.29
2022-08-24T00:02:53.196Z,76.82
2022-08-24T00:03:13.182Z,77
2022-08-24T00:03:34.775Z,77.46
2022-08-24T00:03:55.532Z,77.15
2022-08-24T00:04:13.760Z,77.47
2022-08-24T00:04:33.263Z,77.98
2022-08-24T00:04:53.339Z,78.01
2022-08-24T00:05:14.885Z,78.3
2022-08-24T00:05:33.496Z,78.47
2022-08-24T00:05:53.564Z,78.67
2022-08-24T00:06:13.638Z,78.75
2022-08-24T00:06:33.696Z,78.83
2022-08-24T00:06:53.780Z,78.85
2022-08-24T00:07:26.481Z,78.9
2022-08-24T00:07:33.935Z,78.96
2022-08-24T00:07:53.989Z,78.96
2022-08-24T00:08:14.067Z,78.99
2022-08-24T00:08:34.146Z,78.88
2022-08-24T00:08:54.257Z,78.97
2022-08-24T00:09:14.333Z,78.94
2022-08-24T00:09:34.397Z,78.93
2022-08-24T00:09:54.498Z,78.96
2022-08-24T00:10:14.534Z,78.95
2022-08-24T00:10:34.579Z,78.97
2022-08-24T00:10:54.659Z,78.95
2022-08-24T00:11:14.686Z,78.95
2022-08-24T00:11:34.788Z,78.28
2022-08-24T00:11:54.838Z,78.8
2022-08-24T00:12:14.880Z,78.75
2022-08-24T00:12:34.936Z,78.37
2022-08-24T00:12:54.988Z,78.3
2022-08-24T00:13:15.013Z,78.57
2022-08-24T00:13:39.248Z,78.61
2022-08-24T00:13:55.094Z,79.05
2022-08-24T00:14:15.173Z,78.79
2022-08-24T00:14:35.207Z,78.67
2022-08-24T00:14:55.246Z,78.62
2022-08-24T00:15:15.308Z,78.78
2022-08-24T00:15:35.363Z,79.1
2022-08-24T00:15:55.411Z,78.96
2022-08-24T00:16:15.589Z,78.98
2022-08-24T00:16:35.615Z,79.04
2022-08-24T00:16:55.683Z,78.82
2022-08-24T00:17:15.645Z,78.84
2022-08-24T00:17:35.733Z,78.76
2022-08-24T00:17:55.806Z,78.75
2022-08-24T00:18:15.840Z,78.9
2022-08-24T00:18:35.866Z,78.91
2022-08-24T00:18:55.906Z,78.47
2022-08-24T00:19:15.966Z,78.66
2022-08-24T00:19:36.018Z,79.06
2022-08-24T00:19:56.093Z,79.3
2022-08-24T00:20:16.152Z,79.34
2022-08-24T00:20:36.223Z,79.12
2022-08-24T00:20:56.293Z,79.23
2022-08-24T00:21:16.338Z,78.86
2022-08-24T00:21:36.403Z,77.99
2022-08-24T00:21:56.459Z,77.94
2022-08-24T00:22:16.543Z,77.82
2022-08-24T00:22:36.598Z,77.88
2022-08-24T00:22:56.653Z,77.99
2022-08-24T00:23:16.702Z,78.05
2022-08-24T00:23:36.764Z,78.19
2022-08-24T00:23:56.823Z,78.2
2022-08-24T00:24:16.897Z,78.36
2022-08-24T00:24:36.947Z,77.94
2022-08-24T00:24:57.047Z,78.02
2022-08-24T00:25:17.097Z,78.07
2022-08-24T00:25:37.136Z,78.03
2022-08-24T00:25:57.212Z,78.41
2022-08-24T00:26:17.259Z,78.33
2022-08-24T00:26:37.352Z,78.62
2022-08-24T00:26:57.402Z,79.11
2022-08-24T00:27:17.429Z,79.35
2022-08-24T00:27:37.473Z,79.52
2022-08-24T00:27:57.563Z,79.76
2022-08-24T00:28:17.591Z,79.91
2022-08-24T00:28:37.624Z,80.05
2022-08-24T00:28:57.703Z,80.06
2022-08-24T00:29:17.770Z,80.02
2022-08-24T00:29:37.861Z,79.99
2022-08-24T00:29:57.885Z,79.76
2022-08-24T00:30:17.933Z,79.13
2022-08-24T00:30:38.007Z,79.53
2022-08-24T00:30:58.079Z,79.57
2022-08-24T00:31:18.168Z,79.01
2022-08-24T00:31:38.243Z,78.78
2022-08-24T00:31:58.391Z,78.75
2022-08-24T00:32:18.287Z,78.86
2022-08-24T00:32:38.337Z,78.75
2022-08-24T00:32:58.416Z,79.01
2022-08-24T00:33:18.470Z,78.9
2022-08-24T00:33:38.531Z,78.71
2022-08-24T00:33:58.574Z,79.35
2022-08-24T00:34:18.624Z,79.93
2022-08-24T00:34:38.674Z,80.04
2022-08-24T00:34:59.500Z,79.8
2022-08-24T00:35:18.737Z,79.22
2022-08-24T00:35:38.818Z,79.67
2022-08-24T00:35:58.881Z,79.41
2022-08-24T00:36:18.961Z,79.04
2022-08-24T00:36:39.015Z,79.17
2022-08-24T00:36:59.086Z,79.08
2022-08-24T00:37:19.133Z,79.22
2022-08-24T00:37:39.200Z,79.51
2022-08-24T00:37:59.315Z,79.24
2022-08-24T00:38:19.311Z,79.53
2022-08-24T00:38:39.365Z,79.84
2022-08-24T00:38:59.459Z,80.08
2022-08-24T00:39:19.508Z,79.38
2022-08-24T00:39:39.589Z,79.01
2022-08-24T00:39:59.812Z,78.72
2022-08-24T00:40:19.730Z,79.01
2022-08-24T00:40:39.768Z,79.65
2022-08-24T00:40:59.814Z,79.86
2022-08-24T00:41:19.875Z,79.78
2022-08-24T00:41:39.941Z,79.88
2022-08-24T00:42:00.036Z,79.95
2022-08-24T00:42:20.084Z,80.22
2022-08-24T00:42:40.149Z,79.76
2022-08-24T00:43:00.218Z,79.4
2022-08-24T00:43:20.273Z,79.55
2022-08-24T00:43:40.298Z,79.94
2022-08-24T00:44:00.386Z,80.25
2022-08-24T00:44:20.471Z,80.41
2022-08-24T00:44:40.507Z,80.56
2022-08-24T00:45:00.576Z,80.51
2022-08-24T00:45:20.702Z,80.07
2022-08-24T00:45:40.729Z,79.62
2022-08-24T00:46:00.812Z,79.5
2022-08-24T00:46:20.800Z,79.57
2022-08-24T00:46:40.845Z,79.92
2022-08-24T00:47:00.903Z,79.83
2022-08-24T00:47:20.961Z,79.61
2022-08-24T00:47:40.999Z,79.74
2022-08-24T00:48:01.103Z,79.98
2022-08-24T00:48:21.120Z,80.33
2022-08-24T00:48:41.198Z,80.06
2022-08-24T00:49:01.275Z,79.89
2022-08-24T00:49:21.325Z,80.18
2022-08-24T00:49:41.357Z,80.32
2022-08-24T00:50:01.441Z,80.51
2022-08-24T00:50:21.543Z,80.23
2022-08-24T00:50:41.635Z,79.55
2022-08-24T00:51:01.675Z,79.3
2022-08-24T00:51:21.753Z,79.39
2022-08-24T00:51:41.832Z,79.5
2022-08-24T00:52:03.615Z,79.83
2022-08-24T00:52:21.924Z,80.34
2022-08-24T00:52:41.992Z,80.31
2022-08-24T00:53:02.061Z,80.55
2022-08-24T00:53:22.101Z,80.4
2022-08-24T00:53:42.170Z,80.36
2022-08-24T00:54:02.235Z,80.67
2022-08-24T00:54:22.322Z,80.8
2022-08-24T00:54:46.139Z,81.07
2022-08-24T00:55:02.474Z,81.29
2022-08-24T00:55:22.540Z,80.91
2022-08-24T00:55:42.602Z,79.99
2022-08-24T00:56:02.651Z,80.06
2022-08-24T00:56:22.717Z,80.1
2022-08-24T00:56:42.771Z,80.14
2022-08-24T00:57:02.854Z,80.61
2022-08-24T00:57:22.913Z,80.28
2022-08-24T00:57:43.011Z,79.76
2022-08-24T00:58:03.275Z,79.63
2022-08-24T00:58:23.154Z,79.58
2022-08-24T00:58:43.209Z,79.68
2022-08-24T00:59:03.263Z,79.79
2022-08-24T00:59:23.323Z,80.15
2022-08-24T00:59:43.382Z,80.52
2022-08-24T01:00:03.433Z,80.75
2022-08-24T01:00:23.524Z,80.6
2022-08-24T01:00:46.349Z,80.03
2022-08-24T01:01:03.705Z,79.83
2022-08-24T01:01:23.689Z,79.9
2022-08-24T01:01:43.855Z,79.57
2022-08-24T01:02:14.961Z,79.55
2022-08-24T01:02:23.913Z,79.53
2022-08-24T01:02:44.000Z,79.6
2022-08-24T01:03:03.967Z,79.64
2022-08-24T01:03:24.019Z,79.94
2022-08-24T01:03:44.071Z,80.21
2022-08-24T01:04:04.148Z,80.18
2022-08-24T01:04:24.356Z,80.32
2022-08-24T01:04:44.218Z,79.96
2022-08-24T01:05:04.291Z,79.88
2022-08-24T01:05:24.347Z,80.03
2022-08-24T01:05:44.398Z,80.37
2022-08-24T01:06:04.470Z,80
2022-08-24T01:06:24.531Z,80
2022-08-24T01:06:44.577Z,79.81
2022-08-24T01:07:04.609Z,79.73
2022-08-24T01:07:24.684Z,79.96
2022-08-24T01:07:44.745Z,80.15
2022-08-24T01:08:04.990Z,80.18
2022-08-24T01:08:24.886Z,80.02
2022-08-24T01:08:44.964Z,80.39
2022-08-24T01:09:05.039Z,80.53
2022-08-24T01:09:25.093Z,80.82
2022-08-24T01:09:45.151Z,80.98
2022-08-24T01:10:05.192Z,81
2022-08-24T01:10:25.272Z,81.18
2022-08-24T01:10:45.285Z,80.81
2022-08-24T01:11:05.354Z,80.67
2022-08-24T01:11:25.408Z,81.07
2022-08-24T01:11:45.496Z,81.2
2022-08-24T01:12:05.553Z,81.16
2022-08-24T01:12:25.597Z,80.98
2022-08-24T01:12:59.806Z,81.18
2022-08-24T01:13:05.746Z,81.27
2022-08-24T01:13:25.797Z,81.09
2022-08-24T01:13:45.855Z,81.11
2022-08-24T01:14:05.921Z,81.21
2022-08-24T01:14:25.966Z,81.08
2022-08-24T01:14:46.034Z,80.75
2022-08-24T01:15:06.086Z,80.77
2022-08-24T01:15:26.171Z,81.04
2022-08-24T01:15:46.226Z,80.98
2022-08-24T01:16:06.375Z,80.89
2022-08-24T01:16:26.445Z,80.23
2022-08-24T01:16:46.452Z,80.07
2022-08-24T01:17:06.530Z,80.21
2022-08-24T01:17:26.618Z,80.56
2022-08-24T01:17:46.640Z,80.59
2022-08-24T01:18:06.678Z,80.56
2022-08-24T01:18:26.743Z,80.61
2022-08-24T01:18:46.823Z,80.44
2022-08-24T01:19:06.884Z,80.08
2022-08-24T01:19:26.911Z,80.13
2022-08-24T01:19:46.958Z,80.29
2022-08-24T01:20:07.034Z,80.75
2022-08-24T01:20:27.095Z,81.18
2022-08-24T01:20:47.159Z,81.67
2022-08-24T01:21:07.250Z,81.15
2022-08-24T01:21:27.307Z,80.87
2022-08-24T01:21:47.363Z,80.96
2022-08-24T01:22:07.434Z,80.75
2022-08-24T01:22:27.489Z,80.82
2022-08-24T01:22:47.545Z,81.05
2022-08-24T01:23:07.596Z,81.14
2022-08-24T01:23:27.638Z,81.19
2022-08-24T01:23:47.710Z,81.69
2022-08-24T01:24:07.775Z,81.61
2022-08-24T01:24:27.811Z,82.02
2022-08-24T01:24:47.928Z,82.25
2022-08-24T01:25:07.963Z,82.02
2022-08-24T01:25:28.020Z,82.01
2022-08-24T01:25:48.074Z,81.79
2022-08-24T01:26:08.142Z,81.9
2022-08-24T01:26:28.194Z,81.47
2022-08-24T01:26:48.274Z,81.37
2022-08-24T01:27:08.322Z,81.62
2022-08-24T01:27:28.379Z,82.32
2022-08-24T01:27:48.438Z,82.31
2022-08-24T01:28:08.495Z,81.93
2022-08-24T01:28:28.553Z,81.21
2022-08-24T01:28:48.620Z,81.34
2022-08-24T01:29:08.677Z,81.57
2022-08-24T01:29:28.731Z,81.85
2022-08-24T01:29:48.800Z,82.04
2022-08-24T01:30:08.871Z,82
2022-08-24T01:30:30.732Z,81.4
2022-08-24T01:30:48.971Z,81.34
2022-08-24T01:31:09.060Z,81.34
2022-08-24T01:31:29.130Z,81.93
2022-08-24T01:31:49.175Z,82.14
2022-08-24T01:32:09.212Z,81.7
2022-08-24T01:32:29.285Z,81.3
2022-08-24T01:32:49.355Z,81.22
2022-08-24T01:33:09.420Z,81.43
2022-08-24T01:33:29.478Z,81.74
2022-08-24T01:33:49.534Z,82.03
2022-08-24T01:34:09.583Z,81.94
2022-08-24T01:34:29.663Z,81.48
2022-08-24T01:34:49.720Z,81.14
2022-08-24T01:35:09.784Z,80.8
2022-08-24T01:35:29.848Z,80.67
2022-08-24T01:35:49.905Z,80.99
2022-08-24T01:36:09.954Z,81.1
2022-08-24T01:36:29.989Z,80.52
2022-08-24T01:36:50.041Z,80.4
2022-08-24T01:37:10.100Z,80.77
2022-08-24T01:37:30.164Z,81.01
2022-08-24T01:37:50.252Z,81.21
2022-08-24T01:38:10.319Z,81.06
2022-08-24T01:38:30.401Z,81.22
2022-08-24T01:38:50.426Z,81.03
2022-08-24T01:39:10.479Z,80.82
2022-08-24T01:39:30.519Z,80.79
2022-08-24T01:39:50.635Z,80.81
2022-08-24T01:40:10.653Z,80.98
2022-08-24T01:40:30.645Z,80.97
2022-08-24T01:40:50.708Z,81.1
2022-08-24T01:41:12.276Z,81
2022-08-24T01:41:30.825Z,80.96
2022-08-24T01:41:50.888Z,81.1
2022-08-24T01:42:10.956Z,81.35
2022-08-24T01:42:31.029Z,81.71
2022-08-24T01:42:51.117Z,81.25
2022-08-24T01:43:11.204Z,81.31
2022-08-24T01:43:31.275Z,81.31
2022-08-24T01:43:51.337Z,81.2
2022-08-24T01:44:11.392Z,81.43
2022-08-24T01:44:31.470Z,82.01
2022-08-24T01:44:51.507Z,82.07
2022-08-24T01:45:11.520Z,82.07
2022-08-24T01:45:31.602Z,81.6
2022-08-24T01:45:51.669Z,81.19
2022-08-24T01:46:11.766Z,81.36
2022-08-24T01:46:31.859Z,81.36
2022-08-24T01:46:51.911Z,81.67
2022-08-24T01:47:11.913Z,81.98
2022-08-24T01:47:31.959Z,82.01
2022-08-24T01:47:51.990Z,82.2
2022-08-24T01:48:12.063Z,82.4
2022-08-24T01:48:32.109Z,82.6
2022-08-24T01:48:52.180Z,82.68
2022-08-24T01:49:12.228Z,82.15
2022-08-24T01:49:32.325Z,81.61
2022-08-24T01:49:52.427Z,81.68
2022-08-24T01:50:12.465Z,82.03
2022-08-24T01:50:32.521Z,82.33
2022-08-24T01:50:52.585Z,82.37
2022-08-24T01:51:12.626Z,81.84
2022-08-24T01:51:32.710Z,81.85
2022-08-24T01:51:52.762Z,81.64
2022-08-24T01:52:12.805Z,81.47
2022-08-24T01:53:01.498Z,81.17
2022-08-24T01:53:04.832Z,81.03
2022-08-24T01:53:12.991Z,81.27
2022-08-24T01:53:33.016Z,81.43
2022-08-24T01:53:53.104Z,81.45
2022-08-24T01:54:13.155Z,81.57
2022-08-24T01:54:33.207Z,81.44
2022-08-24T01:54:53.275Z,81.81
2022-08-24T01:55:13.324Z,82.38
2022-08-24T01:55:33.409Z,82.07
2022-08-24T01:55:53.495Z,82.19
2022-08-24T01:56:13.571Z,82.66
2022-08-24T01:56:33.629Z,82.84
2022-08-24T01:56:53.680Z,82.84
2022-08-24T01:57:15.041Z,82.79
2022-08-24T01:57:33.833Z,82.9
2022-08-24T01:57:53.890Z,83.18
2022-08-24T01:58:13.947Z,83.21
2022-08-24T01:58:33.999Z,83.14
2022-08-24T01:58:54.036Z,82.98
2022-08-24T01:59:14.078Z,83.06
2022-08-24T01:59:34.132Z,83.18
2022-08-24T01:59:54.237Z,83.21
2022-08-24T02:00:14.297Z,83.13
2022-08-24T02:00:34.325Z,83.13
2022-08-24T02:00:54.381Z,83.07
2022-08-24T02:01:14.425Z,82.7
2022-08-24T02:01:34.589Z,82.76
2022-08-24T02:01:54.630Z,82.85
2022-08-24T02:02:14.693Z,82.97
2022-08-24T02:02:34.783Z,82.97
2022-08-24T02:02:54.827Z,83.06
2022-08-24T02:03:14.933Z,82.94
2022-08-24T02:03:34.912Z,82.59
2022-08-24T02:03:54.989Z,82.39
2022-08-24T02:04:18.840Z,81.94
2022-08-24T02:04:35.104Z,81.92
2022-08-24T02:04:55.143Z,81.69
2022-08-24T02:05:15.217Z,81.81
2022-08-24T02:05:35.257Z,81.95
2022-08-24T02:05:55.330Z,81.54
2022-08-24T02:06:15.340Z,81.41
2022-08-24T02:06:35.387Z,81.18
2022-08-24T02:06:55.468Z,81.2
2022-08-24T02:07:15.559Z,81.42
2022-08-24T02:07:35.612Z,81.28
2022-08-24T02:07:55.695Z,81.43
2022-08-24T02:08:15.757Z,81.5
2022-08-24T02:08:35.808Z,81.68
2022-08-24T02:08:55.872Z,81.76
2022-08-24T02:09:15.942Z,81.83
2022-08-24T02:09:36.010Z,82.14
2022-08-24T02:09:56.065Z,82.4
2022-08-24T02:10:16.137Z,82.7
2022-08-24T02:10:36.197Z,82.88
2022-08-24T02:10:56.739Z,82.85
2022-08-24T02:11:16.276Z,82.64
2022-08-24T02:11:36.332Z,82.88
2022-08-24T02:11:56.389Z,82.93
2022-08-24T02:12:16.502Z,82.83
2022-08-24T02:12:36.549Z,82.83
2022-08-24T02:12:56.685Z,82.83
2022-08-24T02:13:16.645Z,82.62
2022-08-24T02:13:36.730Z,82.22
2022-08-24T02:13:56.797Z,82.03
2022-08-24T02:14:16.844Z,82.38
2022-08-24T02:14:36.895Z,82.71
2022-08-24T02:14:56.960Z,82.65
2022-08-24T02:15:17.003Z,82.37
2022-08-24T02:15:37.160Z,82.42
2022-08-24T02:15:57.210Z,82.78
2022-08-24T02:16:17.320Z,82.92
2022-08-24T02:16:37.301Z,83.1
2022-08-24T02:16:57.337Z,82.95
2022-08-24T02:17:17.394Z,82.74
2022-08-24T02:17:37.439Z,82.51
2022-08-24T02:17:57.520Z,82.62
2022-08-24T02:18:17.588Z,82.57
2022-08-24T02:18:37.637Z,82.64
2022-08-24T02:18:57.705Z,82.85
2022-08-24T02:19:17.752Z,82.53
2022-08-24T02:19:37.811Z,82.3
2022-08-24T02:19:57.873Z,82.31
2022-08-24T02:20:17.933Z,82.45
2022-08-24T02:20:37.996Z,82.64
2022-08-24T02:20:58.058Z,82.74
2022-08-24T02:21:18.099Z,82.69
2022-08-24T02:21:38.177Z,82.59
2022-08-24T02:21:58.220Z,83.12
2022-08-24T02:22:18.293Z,83.17
2022-08-24T02:22:38.347Z,82.89
2022-08-24T02:22:58.412Z,82.93
2022-08-24T02:23:18.462Z,83.19
2022-08-24T02:23:38.523Z,82.74
2022-08-24T02:23:58.607Z,82.67
2022-08-24T02:24:18.646Z,82.75
2022-08-24T02:24:38.698Z,82.63
2022-08-24T02:24:58.790Z,82.87
2022-08-24T02:25:18.862Z,82.8
2022-08-24T02:25:38.910Z,82.58
2022-08-24T02:25:58.982Z,82.67
2022-08-24T02:26:19.036Z,82.51
2022-08-24T02:26:39.104Z,82.66
2022-08-24T02:26:59.154Z,82.82
2022-08-24T02:27:19.234Z,82.96
2022-08-24T02:27:39.286Z,82.82
2022-08-24T02:27:59.351Z,83.44
2022-08-24T02:28:19.405Z,83.51
2022-08-24T02:28:39.462Z,83.51
2022-08-24T02:29:03.747Z,83.61
2022-08-24T02:29:19.588Z,83.64
2022-08-24T02:29:39.643Z,83.79
2022-08-24T02:29:59.686Z,83.43
2022-08-24T02:30:19.773Z,83.07
2022-08-24T02:30:39.827Z,82.82
2022-08-24T02:30:59.914Z,82.69
2022-08-24T02:31:20.007Z,82.44
2022-08-24T02:31:39.955Z,82.7
2022-08-24T02:32:00.027Z,82.57
2022-08-24T02:32:20.130Z,82.69
2022-08-24T02:32:40.166Z,82.58
2022-08-24T02:33:00.354Z,82.48
2022-08-24T02:33:20.306Z,82.27
2022-08-24T02:33:40.381Z,82.9
2022-08-24T02:34:00.435Z,83.13
2022-08-24T02:34:20.524Z,83.17
2022-08-24T02:34:40.574Z,83.4
2022-08-24T02:35:00.684Z,83.47
2022-08-24T02:35:20.687Z,83.82
2022-08-24T02:35:40.732Z,83.85
2022-08-24T02:36:00.778Z,83.92
2022-08-24T02:36:25.397Z,84.01
2022-08-24T02:36:40.894Z,83.96
2022-08-24T02:37:00.927Z,83.5
2022-08-24T02:37:20.992Z,83.37
2022-08-24T02:37:43.403Z,83.67
2022-08-24T02:38:01.089Z,83.41
2022-08-24T02:38:21.170Z,83.38
2022-08-24T02:38:41.203Z,83.54
2022-08-24T02:39:01.246Z,83.67
2022-08-24T02:39:21.302Z,83.87
2022-08-24T02:39:41.391Z,83.78
2022-08-24T02:40:01.563Z,83.77
2022-08-24T02:40:21.594Z,84
2022-08-24T02:40:41.602Z,84.19
2022-08-24T02:41:01.703Z,84.12
2022-08-24T02:41:21.729Z,84.21
2022-08-24T02:41:41.800Z,84.12
2022-08-24T02:42:01.864Z,84.07
2022-08-24T02:42:21.893Z,84.19
2022-08-24T02:42:41.957Z,84.26
2022-08-24T02:43:02.087Z,84.4
2022-08-24T02:43:22.072Z,84.38
2022-08-24T02:43:42.096Z,84.36
2022-08-24T02:44:02.142Z,84.31
2022-08-24T02:44:22.209Z,84.36
2022-08-24T02:44:42.257Z,84.4
2022-08-24T02:45:02.349Z,84.5
2022-08-24T02:45:22.391Z,84.57
2022-08-24T02:45:42.453Z,84.48
2022-08-24T02:46:02.594Z,84.32
2022-08-24T02:46:22.639Z,84.25
2022-08-24T02:46:42.704Z,84.27
2022-08-24T02:47:02.672Z,84.32
2022-08-24T02:47:22.751Z,84.41
2022-08-24T02:47:42.784Z,84.48
2022-08-24T02:48:02.870Z,84.39
2022-08-24T02:48:22.965Z,84.39
2022-08-24T02:48:43.010Z,84.47
2022-08-24T02:49:11.196Z,84.35
2022-08-24T02:49:23.143Z,84.38
2022-08-24T02:49:43.182Z,84.29
2022-08-24T02:50:03.243Z,84.34
2022-08-24T02:50:23.309Z,84.39
2022-08-24T02:50:43.385Z,84.66
2022-08-24T02:51:03.440Z,84.85
2022-08-24T02:51:23.504Z,84.97
2022-08-24T02:51:44.878Z,85.05
2022-08-24T02:52:03.683Z,85.05
2022-08-24T02:52:23.725Z,84.94
2022-08-24T02:52:43.772Z,84.95
2022-08-24T02:53:04.007Z,84.58
2022-08-24T02:53:23.912Z,84.35
2022-08-24T02:53:43.961Z,84.23
2022-08-24T02:54:04.031Z,84.03
2022-08-24T02:54:24.054Z,84.02
2022-08-24T02:54:44.117Z,84.68
2022-08-24T02:55:04.214Z,84.97
2022-08-24T02:55:24.256Z,84.96
2022-08-24T02:55:44.327Z,84.73
2022-08-24T02:56:04.386Z,84.43
2022-08-24T02:56:24.445Z,84.31
2022-08-24T02:56:44.481Z,84.63
2022-08-24T02:57:04.556Z,84.83
2022-08-24T02:57:24.593Z,84.89
2022-08-24T02:57:44.684Z,85
2022-08-24T02:58:04.739Z,84.98
2022-08-24T02:58:24.794Z,84.76
2022-08-24T02:58:44.876Z,84.69
2022-08-24T02:59:04.918Z,84.53
2022-08-24T02:59:24.974Z,84.34
2022-08-24T02:59:45.043Z,84.75
2022-08-24T03:00:09.932Z,85.13
2022-08-24T03:00:25.169Z,85.43
2022-08-24T03:00:45.246Z,85.66
2022-08-24T03:01:05.383Z,85.73
2022-08-24T03:01:30.530Z,85.72
2022-08-24T03:01:45.514Z,85.6
2022-08-24T03:02:05.553Z,85.42
2022-08-24T03:02:25.601Z,85.27
2022-08-24T03:02:45.688Z,85.17
2022-08-24T03:03:05.912Z,85.16
2022-08-24T03:03:25.723Z,85.37
2022-08-24T03:03:45.780Z,85.52
2022-08-24T03:04:05.857Z,85.79
2022-08-24T03:04:25.901Z,85.79
2022-08-24T03:04:45.936Z,85.49
2022-08-24T03:05:05.997Z,85.79
2022-08-24T03:05:26.080Z,85.96
2022-08-24T03:05:46.227Z,86.05
2022-08-24T03:06:06.189Z,85.93
2022-08-24T03:06:26.273Z,86.05
2022-08-24T03:06:46.348Z,86.21
2022-08-24T03:07:06.404Z,86.1
2022-08-24T03:07:26.466Z,85.79
2022-08-24T03:07:46.521Z,85.79
2022-08-24T03:08:06.573Z,86
2022-08-24T03:08:26.635Z,86.24
2022-08-24T03:08:51.278Z,86.32
2022-08-24T03:09:06.744Z,86.23
2022-08-24T03:09:28.974Z,85.95
2022-08-24T03:09:46.872Z,86.12
2022-08-24T03:10:06.943Z,86.22
2022-08-24T03:10:27.005Z,86.22
2022-08-24T03:10:47.060Z,86.29
2022-08-24T03:11:07.101Z,86.17
2022-08-24T03:11:28.416Z,86.14
2022-08-24T03:11:47.236Z,86.19
2022-08-24T03:12:07.294Z,86.21
2022-08-24T03:12:27.359Z,86.22
2022-08-24T03:12:47.405Z,86.19
2022-08-24T03:13:07.476Z,86.08
2022-08-24T03:13:27.546Z,86.19
2022-08-24T03:13:47.596Z,86.13
2022-08-24T03:14:07.649Z,86.16
2022-08-24T03:14:27.703Z,85.99
2022-08-24T03:14:47.764Z,85.98
2022-08-24T03:15:07.821Z,85.78
2022-08-24T03:15:27.946Z,85.69
2022-08-24T03:15:47.987Z,85.61
2022-08-24T03:16:08.053Z,85.65
2022-08-24T03:16:28.055Z,85.76
2022-08-24T03:16:48.122Z,85.73
2022-08-24T03:17:08.166Z,85.61
2022-08-24T03:17:28.246Z,85.81
2022-08-24T03:17:48.279Z,85.65
2022-08-24T03:18:08.362Z,85.39
2022-08-24T03:18:28.420Z,85.39
2022-08-24T03:18:48.489Z,85.51
2022-08-24T03:19:08.554Z,85.67
2022-08-24T03:19:28.606Z,85.62
2022-08-24T03:19:48.648Z,85.49
2022-08-24T03:20:08.710Z,85.53
2022-08-24T03:20:28.753Z,85.97
2022-08-24T03:20:48.806Z,86.17
2022-08-24T03:21:08.840Z,86.04
2022-08-24T03:21:28.909Z,85.73
2022-08-24T03:21:48.956Z,85.95
2022-08-24T03:22:09.001Z,86.27
2022-08-24T03:22:29.074Z,86.02
2022-08-24T03:22:49.106Z,85.93
2022-08-24T03:23:09.172Z,86.14
2022-08-24T03:23:29.305Z,85.94
2022-08-24T03:23:49.335Z,85.67
2022-08-24T03:24:09.383Z,85.64
2022-08-24T03:24:29.448Z,85.91
2022-08-24T03:24:49.503Z,85.91
2022-08-24T03:25:09.593Z,86.14
2022-08-24T03:25:29.659Z,86.02
2022-08-24T03:25:49.684Z,85.98
2022-08-24T03:26:09.756Z,86.01
2022-08-24T03:26:29.788Z,85.95
2022-08-24T03:26:49.849Z,85.81
2022-08-24T03:27:09.865Z,85.68
2022-08-24T03:27:29.910Z,85.6
2022-08-24T03:27:50.306Z,85.67
2022-08-24T03:28:11.200Z,85.75
2022-08-24T03:28:30.101Z,85.68
2022-08-24T03:28:50.162Z,85.8
2022-08-24T03:29:10.259Z,85.79
2022-08-24T03:29:33.647Z,85.75
2022-08-24T03:29:50.402Z,86.01
2022-08-24T03:30:10.468Z,86.02
2022-08-24T03:30:30.553Z,86.19
2022-08-24T03:30:50.641Z,86.6
2022-08-24T03:31:10.713Z,86.99
2022-08-24T03:31:30.718Z,86.92
2022-08-24T03:31:50.779Z,86.82
2022-08-24T03:32:10.830Z,86.55
2022-08-24T03:32:30.906Z,86.16
2022-08-24T03:32:50.940Z,86.28
2022-08-24T03:33:12.101Z,86.26
2022-08-24T03:33:31.030Z,86.13
2022-08-24T03:33:51.092Z,86.33
2022-08-24T03:34:11.163Z,86.37
2022-08-24T03:34:31.213Z,86.58
2022-08-24T03:34:51.266Z,86.4
2022-08-24T03:35:11.326Z,86.29
2022-08-24T03:35:31.375Z,86.33
2022-08-24T03:35:51.430Z,86.57
2022-08-24T03:36:14.345Z,86.59
2022-08-24T03:36:31.572Z,86.81
2022-08-24T03:36:51.665Z,86.88
2022-08-24T03:37:11.687Z,86.94
2022-08-24T03:37:31.772Z,87.02
2022-08-24T03:37:51.864Z,87.22
2022-08-24T03:38:11.929Z,87.4
2022-08-24T03:38:31.976Z,87.06
2022-08-24T03:38:52.057Z,86.83
2022-08-24T03:39:12.125Z,86.97
2022-08-24T03:39:32.161Z,87.24
2022-08-24T03:39:52.244Z,87.23
2022-08-24T03:40:22.915Z,87.24
2022-08-24T03:40:32.480Z,87.32
2022-08-24T03:40:52.430Z,87.4
2022-08-24T03:41:12.486Z,87.35
2022-08-24T03:41:35.052Z,87.16
2022-08-24T03:41:52.610Z,86.87
2022-08-24T03:42:12.693Z,86.81
2022-08-24T03:42:32.705Z,86.92
2022-08-24T03:42:52.790Z,86.95
2022-08-24T03:43:12.857Z,86.92
2022-08-24T03:43:32.923Z,86.96
2022-08-24T03:43:52.975Z,87.14
2022-08-24T03:44:13.022Z,87.09
2022-08-24T03:44:33.078Z,87.07
2022-08-24T03:44:53.152Z,87.01
2022-08-24T03:45:13.202Z,86.99
2022-08-24T03:45:33.347Z,87.04
2022-08-24T03:45:53.346Z,87.16
2022-08-24T03:46:13.441Z,87.01
2022-08-24T03:46:33.404Z,86.97
2022-08-24T03:46:53.532Z,86.91
2022-08-24T03:47:13.567Z,86.99
2022-08-24T03:47:33.619Z,87.02
2022-08-24T03:47:53.638Z,87.17
2022-08-24T03:48:13.705Z,87.24
2022-08-24T03:48:33.749Z,87.2
2022-08-24T03:48:53.778Z,87.19
2022-08-24T03:49:13.836Z,87.1
2022-08-24T03:49:33.957Z,87.17
2022-08-24T03:49:53.993Z,87.24
2022-08-24T03:50:14.074Z,87.26
2022-08-24T03:50:34.148Z,87.23
2022-08-24T03:50:54.211Z,87.22
2022-08-24T03:51:14.308Z,87.05
2022-08-24T03:51:34.373Z,86.95
2022-08-24T03:51:54.406Z,86.78
2022-08-24T03:52:14.463Z,86.65
2022-08-24T03:52:34.517Z,86.83
2022-08-24T03:52:54.558Z,86.93
2022-08-24T03:53:14.638Z,86.89
2022-08-24T03:53:34.672Z,86.79
2022-08-24T03:53:54.744Z,86.92
2022-08-24T03:54:14.819Z,86.95
2022-08-24T03:54:34.880Z,86.97
2022-08-24T03:54:54.954Z,86.96
2022-08-24T03:55:15.008Z,86.96
2022-08-24T03:55:35.133Z,86.97
2022-08-24T03:55:55.147Z,87.03
2022-08-24T03:56:15.211Z,87.03
2022-08-24T03:56:35.251Z,87.11
2022-08-24T03:56:55.295Z,87.22
2022-08-24T03:57:15.377Z,87.27
2022-08-24T03:57:35.448Z,87.27
2022-08-24T03:57:55.525Z,87.19
2022-08-24T03:58:15.572Z,87.23
2022-08-24T03:58:35.635Z,87.19
2022-08-24T03:58:55.705Z,87.08
2022-08-24T03:59:19.840Z,87.01
2022-08-24T03:59:39.335Z,87.06
2022-08-24T03:59:55.866Z,87.29
2022-08-24T04:00:15.897Z,87.35
2022-08-24T04:00:35.961Z,87.34
2022-08-24T04:00:56.075Z,87.32
2022-08-24T04:01:16.129Z,87.41
2022-08-24T04:01:36.183Z,87.37
2022-08-24T04:01:56.290Z,87.23
2022-08-24T04:02:16.274Z,87.24
2022-08-24T04:02:36.322Z,87.32
2022-08-24T04:02:56.382Z,87.5
2022-08-24T04:03:16.423Z,87.65
2022-08-24T04:03:36.463Z,87.6
2022-08-24T04:03:56.515Z,87.57
2022-08-24T04:04:16.594Z,87.45
2022-08-24T04:04:36.645Z,87.43
2022-08-24T04:04:56.691Z,87.43
2022-08-24T04:05:16.766Z,87.27
2022-08-24T04:05:36.817Z,87.37
2022-08-24T04:05:56.900Z,87.54
2022-08-24T04:06:16.942Z,87.82
2022-08-24T04:06:37.007Z,87.96
2022-08-24T04:06:57.120Z,87.91
2022-08-24T04:07:17.176Z,87.97
2022-08-24T04:07:37.243Z,87.79
2022-08-24T04:07:57.286Z,87.66
2022-08-24T04:08:17.917Z,87.52
2022-08-24T04:08:37.416Z,87.21
2022-08-24T04:08:57.470Z,87.18
2022-08-24T04:09:17.525Z,87.21
2022-08-24T04:09:37.589Z,87.35
2022-08-24T04:09:57.641Z,87.6
2022-08-24T04:10:17.713Z,87.49
2022-08-24T04:10:37.762Z,87.24
2022-08-24T04:10:57.824Z,87.18
2022-08-24T04:11:17.877Z,87.18
2022-08-24T04:11:41.092Z,87.52
2022-08-24T04:11:58.005Z,87.79
2022-08-24T04:12:18.058Z,87.6
2022-08-24T04:12:38.128Z,87.45
2022-08-24T04:12:58.165Z,87.52
2022-08-24T04:13:18.231Z,87.68
2022-08-24T04:13:38.251Z,87.9
2022-08-24T04:13:58.323Z,87.76
2022-08-24T04:14:26.442Z,87.91
2022-08-24T04:14:38.431Z,87.98
2022-08-24T04:14:58.465Z,87.91
2022-08-24T04:15:18.544Z,87.83
2022-08-24T04:15:38.622Z,87.73
2022-08-24T04:15:58.732Z,87.67
2022-08-24T04:16:18.796Z,87.56
2022-08-24T04:16:38.882Z,87.46
2022-08-24T04:16:58.908Z,87.55
2022-08-24T04:17:18.919Z,87.77
2022-08-24T04:17:38.994Z,88.08
2022-08-24T04:17:59.080Z,88.18
2022-08-24T04:18:19.158Z,88.22
2022-08-24T04:18:39.206Z,88.13
2022-08-24T04:18:59.289Z,87.99
2022-08-24T04:19:19.337Z,87.96